createdAt,value
2022-08-23T00:00:24.201Z,18.70
2022-08-23T00:05:28.586Z,18.80
2022-08-23T00:10:30.509Z,18.80
2022-08-23T00:15:33.578Z,18.80
2022-08-23T00:20:35.371Z,18.80
2022-08-23T00:25:37.167Z,18.80
2022-08-23T00:30:39.113Z,18.90
2022-08-23T00:35:40.970Z,18.90
2022-08-23T00:40:52.095Z,18.90
2022-08-23T00:46:24.592Z,18.90
2022-08-23T00:51:58.532Z,18.90
2022-08-23T00:57:05.490Z,18.90
2022-08-23T01:02:08.419Z,18.90
2022-08-23T01:07:16.487Z,18.80
2022-08-23T01:12:32.225Z,18.80
2022-08-23T01:17:46.232Z,18.80
2022-08-23T01:22:51.029Z,18.70
2022-08-23T01:27:53.157Z,18.60
2022-08-23T01:33:01.346Z,18.50
2022-08-23T01:38:04.641Z,18.50
2022-08-23T01:43:07.371Z,18.40
2022-08-23T01:48:09.250Z,18.20
2022-08-23T01:53:12.875Z,18.10
2022-08-23T01:58:14.848Z,18.00
2022-08-23T02:03:17.315Z,17.90
2022-08-23T02:08:37.834Z,17.90
2022-08-23T02:13:39.630Z,17.80
2022-08-23T02:18:41.508Z,17.80
2022-08-23T02:23:43.808Z,17.70
2022-08-23T02:28:45.973Z,17.70
2022-08-23T02:33:48.506Z,17.70
2022-08-23T02:38:50.418Z,17.60
2022-08-23T02:43:53.261Z,17.60
2022-08-23T02:48:55.761Z,17.70
2022-08-23T02:53:57.637Z,17.60
2022-08-23T02:59:00.157Z,17.70
2022-08-23T03:04:03.713Z,17.80
2022-08-23T03:09:07.568Z,17.70
2022-08-23T03:14:09.484Z,17.80
2022-08-23T03:19:11.625Z,17.80
2022-08-23T03:24:13.667Z,17.80
2022-08-23T03:29:15.494Z,17.80
2022-08-23T03:34:17.486Z,17.80
2022-08-23T03:39:19.287Z,17.90
2022-08-23T03:44:21.106Z,17.80
2022-08-23T03:49:22.956Z,17.90
2022-08-23T03:54:24.974Z,17.80
2022-08-23T03:59:27.850Z,17.90
2022-08-23T04:04:29.731Z,18.00
2022-08-23T04:09:31.651Z,18.10
2022-08-23T04:14:33.460Z,18.40
2022-08-23T04:19:36.177Z,18.60
2022-08-23T04:24:38.531Z,18.70
2022-08-23T04:29:41.088Z,18.90
2022-08-23T04:34:45.351Z,19.10
2022-08-23T04:40:06.029Z,19.30
2022-08-23T04:45:08.868Z,19.50
2022-08-23T04:50:11.076Z,19.60
2022-08-23T04:55:13.469Z,19.80
2022-08-23T05:00:16.744Z,19.90
2022-08-23T05:05:18.556Z,20.30
2022-08-23T05:10:20.443Z,20.50
2022-08-23T05:15:22.313Z,20.70
2022-08-23T05:20:24.132Z,20.70
2022-08-23T05:25:45.904Z,21.40
2022-08-23T05:31:20.871Z,21.50
2022-08-23T05:36:23.230Z,21.40
2022-08-23T05:41:25.235Z,21.60
2022-08-23T05:46:40.117Z,22.60
2022-08-23T05:51:45.328Z,22.90
2022-08-23T05:56:53.362Z,23.00
2022-08-23T06:01:55.187Z,22.70
2022-08-23T06:06:58.924Z,22.30
2022-08-23T06:12:01.292Z,22.10
2022-08-23T06:17:03.133Z,22.20
2022-08-23T06:22:05.487Z,22.40
2022-08-23T06:27:07.535Z,22.50
2022-08-23T06:32:09.347Z,23.20
2022-08-23T06:37:14.584Z,23.60
2022-08-23T06:42:38.185Z,24.90
2022-08-23T06:47:40.307Z,30.10
2022-08-23T06:52:42.129Z,32.60
2022-08-23T06:57:45.604Z,33.80
2022-08-23T07:02:50.121Z,34.90
2022-08-23T07:07:52.097Z,36.00
2022-08-23T07:12:53.879Z,37.30
2022-08-23T07:17:58.188Z,37.20
2022-08-23T07:23:01.441Z,38.40
2022-08-23T07:28:03.637Z,37.80
2022-08-23T07:33:07.323Z,38.80
2022-08-23T07:38:09.383Z,38.50
2022-08-23T07:43:11.903Z,38.40
2022-08-23T07:48:14.357Z,37.50
2022-08-23T07:53:27.533Z,36.60
2022-08-23T07:58:40.255Z,38.30
2022-08-23T08:03:47.940Z,40.70
2022-08-23T08:08:51.081Z,40.00
2022-08-23T08:13:53.656Z,41.60
2022-08-23T08:18:59.076Z,41.40
2022-08-23T08:24:01.734Z,38.30
2022-08-23T08:29:04.227Z,38.40
2022-08-23T08:34:07.800Z,37.50
2022-08-23T08:39:16.208Z,36.70
2022-08-23T08:44:47.236Z,38.10
2022-08-23T08:49:57.506Z,39.50
2022-08-23T08:55:17.086Z,38.50
2022-08-23T09:00:37.079Z,37.80
2022-08-23T09:05:45.764Z,38.00
2022-08-23T09:11:02.883Z,38.50
2022-08-23T09:16:16.714Z,37.70
2022-08-23T09:21:19.127Z,35.70
2022-08-23T09:26:25.957Z,37.20
2022-08-23T09:31:47.561Z,36.80
2022-08-23T09:36:52.150Z,36.40
2022-08-23T09:41:54.226Z,37.30
2022-08-23T09:47:08.569Z,38.50
2022-08-23T09:52:34.024Z,37.40
2022-08-23T09:57:37.326Z,35.00
2022-08-23T10:02:39.746Z,34.50
2022-08-23T10:08:00.088Z,33.70
2022-08-23T10:13:04.092Z,34.30
2022-08-23T10:18:18.220Z,33.40
2022-08-23T10:24:01.140Z,32.50
2022-08-23T10:29:38.746Z,31.80
2022-08-23T10:34:50.740Z,32.10
2022-08-23T10:40:17.555Z,31.30
2022-08-23T10:45:30.644Z,30.30
2022-08-23T10:50:54.635Z,30.30
2022-08-23T10:56:06.122Z,30.60
2022-08-23T11:01:09.641Z,30.00
2022-08-23T11:06:42.023Z,30.40
2022-08-23T11:11:51.052Z,30.80
2022-08-23T11:17:01.052Z,30.60
2022-08-23T11:22:24.647Z,30.60
2022-08-23T11:27:30.149Z,30.80
2022-08-23T11:32:37.925Z,30.30
2022-08-23T11:37:55.113Z,30.70
2022-08-23T11:43:06.193Z,30.50
2022-08-23T11:48:22.780Z,30.10
2022-08-23T11:53:53.303Z,29.70
2022-08-23T11:59:18.354Z,29.60
2022-08-23T12:04:51.758Z,29.70
2022-08-23T12:09:56.296Z,29.90
2022-08-23T12:15:06.765Z,29.50
2022-08-23T12:20:16.875Z,29.80
2022-08-23T12:25:21.617Z,29.80
2022-08-23T12:30:29.632Z,29.60
2022-08-23T12:35:58.204Z,29.40
2022-08-23T12:41:17.907Z,29.50
2022-08-23T12:46:30.683Z,29.40
2022-08-23T12:51:32.879Z,29.50
2022-08-23T12:56:36.506Z,29.60
2022-08-23T13:01:40.079Z,29.70
2022-08-23T13:06:55.321Z,29.50
2022-08-23T13:11:59.106Z,29.40
2022-08-23T13:17:25.415Z,29.30
2022-08-23T13:22:28.977Z,29.20
2022-08-23T13:27:38.407Z,29.30
2022-08-23T13:32:43.521Z,29.40
2022-08-23T13:37:47.479Z,29.30
2022-08-23T13:43:05.617Z,29.10
2022-08-23T13:48:16.978Z,29.50
2022-08-23T13:53:19.089Z,29.30
2022-08-23T13:58:29.069Z,29.30
2022-08-23T14:03:32.485Z,29.20
2022-08-23T14:08:34.269Z,29.00
2022-08-23T14:13:37.451Z,28.90
2022-08-23T14:19:15.095Z,28.80
2022-08-23T14:24:01.246Z,28.80
2022-08-23T14:29:03.144Z,28.80
2022-08-23T14:34:06.251Z,28.80
2022-08-23T14:39:08.166Z,28.90
2022-08-23T14:44:09.943Z,28.70
2022-08-23T14:49:13.064Z,28.40
2022-08-23T14:54:20.555Z,28.30
2022-08-23T14:59:22.557Z,28.10
2022-08-23T15:04:25.491Z,28.10
2022-08-23T15:09:36.091Z,28.20
2022-08-23T15:14:38.163Z,28.40
2022-08-23T15:19:40.010Z,28.60
2022-08-23T15:24:42.112Z,28.70
2022-08-23T15:29:43.938Z,28.80
2022-08-23T15:34:46.415Z,28.80
2022-08-23T15:39:49.693Z,28.70
2022-08-23T15:44:51.883Z,28.50
2022-08-23T15:49:54.004Z,28.40
2022-08-23T15:54:55.875Z,28.20
2022-08-23T15:59:59.043Z,28.10
2022-08-23T16:05:01.255Z,28.10
2022-08-23T16:10:06.583Z,27.90
2022-08-23T16:15:09.616Z,27.90
2022-08-23T16:20:12.590Z,27.70
2022-08-23T16:25:14.564Z,27.60
2022-08-23T16:30:16.530Z,27.40
2022-08-23T16:35:18.504Z,27.20
2022-08-23T16:40:20.840Z,27.00
2022-08-23T16:45:25.766Z,26.80
2022-08-23T16:50:28.445Z,26.70
2022-08-23T16:55:30.259Z,26.60
2022-08-23T17:00:32.642Z,26.30
2022-08-23T17:05:34.607Z,26.20
2022-08-23T17:10:36.507Z,25.90
2022-08-23T17:15:38.539Z,25.60
2022-08-23T17:20:40.647Z,25.40
2022-08-23T17:25:47.617Z,25.10
2022-08-23T17:30:49.890Z,24.80
2022-08-23T17:35:51.745Z,24.60
2022-08-23T17:40:54.936Z,24.40
2022-08-23T17:45:56.814Z,24.20
2022-08-23T17:51:00.023Z,24.00
2022-08-23T17:56:02.068Z,23.80
2022-08-23T18:01:08.154Z,23.60
2022-08-23T18:06:16.850Z,23.40
2022-08-23T18:11:19.204Z,23.20
2022-08-23T18:16:21.081Z,23.10
2022-08-23T18:21:24.560Z,23.00
2022-08-23T18:26:46.383Z,22.90
2022-08-23T18:31:51.152Z,22.80
2022-08-23T18:36:53.823Z,22.70
2022-08-23T18:41:55.615Z,22.60
2022-08-23T18:46:57.908Z,22.60
2022-08-23T18:52:00.229Z,22.50
2022-08-23T18:57:02.701Z,22.40
2022-08-23T19:02:04.801Z,22.30
2022-08-23T19:07:08.267Z,22.20
2022-08-23T19:12:10.162Z,22.20
2022-08-23T19:17:12.069Z,22.10
2022-08-23T19:22:14.588Z,22.00
2022-08-23T19:27:16.466Z,22.00
2022-08-23T19:32:18.436Z,21.90
2022-08-23T19:37:23.059Z,21.80
2022-08-23T19:42:26.552Z,21.70
2022-08-23T19:47:28.853Z,21.70
2022-08-23T19:52:30.750Z,21.70
2022-08-23T19:57:33.697Z,21.70
2022-08-23T20:02:35.471Z,21.70
2022-08-23T20:07:38.159Z,21.60
2022-08-23T20:12:41.805Z,21.60
2022-08-23T20:17:44.863Z,21.60
2022-08-23T20:23:05.518Z,21.60
2022-08-23T20:28:08.339Z,21.60
2022-08-23T20:33:11.470Z,21.50
2022-08-23T20:38:33.342Z,21.50
2022-08-23T20:43:38.974Z,21.50
2022-08-23T20:48:40.782Z,21.40
2022-08-23T20:53:42.611Z,21.30
2022-08-23T20:58:45.398Z,21.20
2022-08-23T21:03:49.305Z,21.10
2022-08-23T21:08:53.952Z,21.10
2022-08-23T21:13:57.006Z,21.00
2022-08-23T21:18:59.023Z,20.90
2022-08-23T21:24:02.996Z,20.80
2022-08-23T21:29:07.782Z,20.80
2022-08-23T21:34:09.770Z,20.80
2022-08-23T21:39:11.554Z,20.90
2022-08-23T21:44:16.514Z,21.00
2022-08-23T21:49:19.030Z,20.90
2022-08-23T21:54:21.355Z,21.00
2022-08-23T21:59:23.397Z,20.90
2022-08-23T22:04:25.199Z,20.90
2022-08-23T22:09:27.924Z,20.80
2022-08-23T22:14:33.731Z,20.70
2022-08-23T22:19:35.547Z,20.70
2022-08-23T22:24:37.886Z,20.70
2022-08-23T22:29:40.216Z,20.90
2022-08-23T22:34:44.549Z,20.70
2022-08-23T22:39:46.409Z,20.50
2022-08-23T22:44:48.239Z,20.50
2022-08-23T22:49:50.034Z,20.30
2022-08-23T22:54:51.824Z,20.30
2022-08-23T22:59:53.639Z,20.20
2022-08-23T23:04:57.253Z,20.10
2022-08-23T23:09:59.080Z,20.10
2022-08-23T23:15:01.135Z,20.10
2022-08-23T23:20:22.571Z,20.00
2022-08-23T23:25:24.339Z,20.00
2022-08-23T23:30:26.530Z,19.90
2022-08-23T23:35:28.686Z,19.80
2022-08-23T23:40:30.976Z,19.80
2022-08-23T23:45:33.002Z,19.80
2022-08-23T23:50:35.240Z,19.80
2022-08-23T23:55:37.060Z,19.70
